createdAt,value
2023-01-12T00:01:06.918Z,-2.57
2023-01-12T00:03:34.503Z,-2.62
2023-01-12T00:06:04.214Z,-2.69
2023-01-12T00:08:32.589Z,-2.71
2023-01-12T00:10:59.949Z,-2.74
2023-01-12T00:13:29.689Z,-2.77
2023-01-12T00:16:20.114Z,-2.77
2023-01-12T00:18:47.913Z,-2.78
2023-01-12T00:21:15.580Z,-2.78
2023-01-12T00:23:43.947Z,-2.76
2023-01-12T00:26:11.867Z,-2.74
2023-01-12T00:28:39.368Z,-2.77
2023-01-12T00:31:08.822Z,-2.81
2023-01-12T00:33:39.831Z,-2.84
2023-01-12T00:36:10.552Z,-2.85
2023-01-12T00:38:38.834Z,-2.85
2023-01-12T00:41:07.828Z,-2.90
2023-01-12T00:43:54.339Z,-2.93
2023-01-12T00:46:34.525Z,-2.97
2023-01-12T00:49:02.168Z,-3.03
2023-01-12T00:51:29.598Z,-3.05
2023-01-12T00:53:56.984Z,-3.04
2023-01-12T00:56:24.716Z,-3.05
2023-01-12T00:58:52.582Z,-3.06
2023-01-12T01:01:21.737Z,-3.07
2023-01-12T01:03:49.550Z,-3.08
2023-01-12T01:06:17.414Z,-3.10
2023-01-12T01:08:45.274Z,-3.13
2023-01-12T01:11:13.194Z,-3.14
2023-01-12T01:13:41.725Z,-3.17
2023-01-12T01:16:09.906Z,-3.22
2023-01-12T01:18:37.667Z,-3.27
2023-01-12T01:21:05.835Z,-3.31
2023-01-12T01:23:34.353Z,-3.38
2023-01-12T01:26:13.547Z,-3.37
2023-01-12T01:28:41.541Z,-3.28
2023-01-12T01:31:14.244Z,-3.27
2023-01-12T01:33:42.780Z,-3.26
2023-01-12T01:36:10.750Z,-3.24
2023-01-12T01:38:38.700Z,-3.23
2023-01-12T01:41:07.231Z,-3.22
2023-01-12T01:43:58.820Z,-3.26
2023-01-12T01:46:49.218Z,-3.27
2023-01-12T01:49:30.386Z,-3.20
2023-01-12T01:52:01.247Z,-3.21
2023-01-12T01:54:29.743Z,-3.26
2023-01-12T01:56:57.371Z,-3.29
2023-01-12T01:59:28.767Z,-3.28
2023-01-12T02:01:57.267Z,-3.27
2023-01-12T02:04:26.209Z,-3.27
2023-01-12T02:06:56.280Z,-3.29
2023-01-12T02:09:27.374Z,-3.27
2023-01-12T02:12:14.292Z,-3.19
2023-01-12T02:15:01.407Z,-3.15
2023-01-12T02:17:39.902Z,-3.12
2023-01-12T02:20:27.433Z,-3.09
2023-01-12T02:23:22.789Z,-3.06
2023-01-12T02:26:01.966Z,-3.02
2023-01-12T02:29:09.050Z,-3.05
2023-01-12T02:31:56.703Z,-3.17
2023-01-12T02:34:33.045Z,-3.25
2023-01-12T02:37:15.247Z,-3.26
2023-01-12T02:39:51.149Z,-3.22
2023-01-12T02:42:41.442Z,-3.21
2023-01-12T02:45:27.793Z,-3.22
2023-01-12T02:48:27.915Z,-3.23
2023-01-12T02:51:00.075Z,-3.24
2023-01-12T02:53:31.440Z,-3.24
2023-01-12T02:56:00.318Z,-3.24
2023-01-12T02:58:28.004Z,-3.23
2023-01-12T03:00:57.392Z,-3.22
2023-01-12T03:03:25.249Z,-3.19
2023-01-12T03:06:00.913Z,-3.16
2023-01-12T03:08:29.691Z,-3.17
2023-01-12T03:11:00.124Z,-3.23
2023-01-12T03:13:29.562Z,-3.33
2023-01-12T03:15:57.281Z,-3.35
2023-01-12T03:18:29.346Z,-3.32
2023-01-12T03:21:03.875Z,-3.27
2023-01-12T03:23:36.498Z,-3.20
2023-01-12T03:26:04.004Z,-3.18
2023-01-12T03:28:34.633Z,-3.16
2023-01-12T03:31:09.729Z,-3.12
2023-01-12T03:33:40.927Z,-3.10
2023-01-12T03:36:40.957Z,-3.11
2023-01-12T03:39:17.401Z,-3.11
2023-01-12T03:41:58.309Z,-3.10
2023-01-12T03:44:43.752Z,-3.13
2023-01-12T03:47:15.153Z,-3.16
2023-01-12T03:49:52.862Z,-3.16
2023-01-12T03:52:20.353Z,-3.18
2023-01-12T03:54:48.227Z,-3.19
2023-01-12T03:57:17.119Z,-3.15
2023-01-12T03:59:44.685Z,-3.12
2023-01-12T04:02:12.963Z,-3.10
2023-01-12T08:19:13.593Z,-3.24
2023-01-12T08:21:46.272Z,-3.10
2023-01-12T08:24:15.281Z,-3.06
2023-01-12T08:26:43.834Z,-3.00
2023-01-12T08:29:17.661Z,-2.90
2023-01-12T08:31:48.063Z,-2.75
2023-01-12T08:34:15.630Z,-2.63
2023-01-12T08:36:44.431Z,-2.54
2023-01-12T08:39:13.107Z,-2.46
2023-01-12T08:41:42.533Z,-2.39
2023-01-12T08:44:11.388Z,-2.32
2023-01-12T08:46:46.804Z,-2.30
2023-01-12T08:49:16.845Z,-2.28
2023-01-12T08:51:45.120Z,-2.28
2023-01-12T08:54:13.754Z,-2.23
2023-01-12T08:56:41.416Z,-2.22
2023-01-12T08:59:09.134Z,-2.25
2023-01-12T09:01:36.912Z,-2.26
2023-01-12T09:04:05.278Z,-2.26
2023-01-12T09:06:37.504Z,-2.26
2023-01-12T09:09:06.900Z,-2.28
2023-01-12T09:11:35.662Z,-2.33
2023-01-12T09:14:03.673Z,-2.33
2023-01-12T09:16:31.964Z,-2.28
2023-01-12T09:18:59.769Z,-2.22
2023-01-12T09:21:28.422Z,-2.16
2023-01-12T09:23:56.396Z,-2.10
2023-01-12T09:26:24.529Z,-2.07
2023-01-12T09:28:52.346Z,-2.04
2023-01-12T09:31:22.774Z,-2.01
2023-01-12T09:33:50.537Z,-2.02
2023-01-12T09:36:20.147Z,-2.04
2023-01-12T09:38:47.920Z,-2.06
2023-01-12T09:41:46.919Z,-2.08
2023-01-12T09:44:50.392Z,-2.09
2023-01-12T09:47:19.894Z,-2.06
2023-01-12T09:50:04.616Z,-2.05
2023-01-12T09:52:48.893Z,-1.99
2023-01-12T09:55:23.970Z,-1.89
2023-01-12T09:58:04.733Z,-1.79
2023-01-12T10:00:32.633Z,-1.71
2023-01-12T10:03:25.514Z,-1.71
2023-01-12T10:05:54.826Z,-1.70
2023-01-12T10:08:46.556Z,-1.66
2023-01-12T10:11:38.856Z,-1.65
2023-01-12T10:14:44.515Z,-1.63
2023-01-12T10:17:51.245Z,-1.64
2023-01-12T10:20:28.831Z,-1.63
2023-01-12T10:23:10.512Z,-1.61
2023-01-12T10:25:44.120Z,-1.57
2023-01-12T10:28:42.592Z,-1.49
2023-01-12T10:31:19.910Z,-1.39
2023-01-12T10:34:07.472Z,-1.35
2023-01-12T10:36:36.409Z,-1.34
2023-01-12T10:39:05.271Z,-1.31
2023-01-12T10:41:34.029Z,-1.27
2023-01-12T10:44:20.280Z,-1.19
2023-01-12T10:47:08.515Z,-1.07
2023-01-12T10:49:36.596Z,-1.01
2023-01-12T10:52:11.591Z,-1.00
2023-01-12T10:54:41.764Z,-0.98
2023-01-12T10:57:22.723Z,-0.97
2023-01-12T11:00:01.021Z,-0.95
2023-01-12T11:02:30.631Z,-0.98
2023-01-12T11:04:58.199Z,-1.03
2023-01-12T11:07:29.654Z,-1.06
2023-01-12T11:10:27.104Z,-1.05
2023-01-12T11:13:03.843Z,-1.00
2023-01-12T11:15:39.552Z,-0.99
2023-01-12T11:18:26.143Z,-0.98
2023-01-12T11:21:13.502Z,-0.98
2023-01-12T11:23:45.522Z,-0.97
2023-01-12T11:26:18.730Z,-0.96
2023-01-12T11:28:48.641Z,-0.98
2023-01-12T11:31:24.281Z,-1.01
2023-01-12T11:33:54.802Z,-1.05
2023-01-12T11:36:31.123Z,-1.04
2023-01-12T11:39:05.188Z,-1.05
2023-01-12T11:41:41.655Z,-1.07
2023-01-12T11:44:14.637Z,-1.15
2023-01-12T11:46:47.028Z,-1.20
2023-01-12T11:49:24.108Z,-1.21
2023-01-12T11:51:56.916Z,-1.17
2023-01-12T11:54:25.859Z,-1.13
2023-01-12T11:57:13.292Z,-1.11
2023-01-12T12:00:00.305Z,-1.07
2023-01-12T12:02:48.581Z,-1.03
2023-01-12T12:05:27.879Z,-1.02
2023-01-12T12:08:17.827Z,-0.97
2023-01-12T12:11:09.279Z,-0.88
2023-01-12T12:14:04.591Z,-0.78
2023-01-12T12:16:38.784Z,-0.73
2023-01-12T12:19:23.364Z,-0.72
2023-01-12T12:21:55.837Z,-0.70
2023-01-12T12:24:52.990Z,-0.69
2023-01-12T12:27:27.104Z,-0.71
2023-01-12T12:30:22.409Z,-0.74
2023-01-12T12:33:07.171Z,-0.75
2023-01-12T12:36:17.441Z,-0.74
2023-01-12T12:38:54.139Z,-0.72
2023-01-12T12:41:43.479Z,-0.76
2023-01-12T12:45:07.434Z,-0.80
2023-01-12T12:47:53.281Z,-0.83
2023-01-12T12:50:21.927Z,-0.91
2023-01-12T12:53:00.956Z,-0.95
2023-01-12T12:55:28.824Z,-0.97
2023-01-12T12:58:04.842Z,-0.96
2023-01-12T13:00:43.863Z,-0.97
2023-01-12T15:34:03.160Z,-2.20
2023-01-12T15:36:30.619Z,-2.05
2023-01-12T15:38:58.282Z,-1.99
2023-01-12T15:41:46.842Z,-1.93
2023-01-12T15:44:19.203Z,-1.85
2023-01-12T15:46:46.824Z,-1.78
2023-01-12T15:49:14.635Z,-1.72
2023-01-12T15:51:43.001Z,-1.68
2023-01-12T15:54:10.664Z,-1.63
2023-01-12T15:56:38.633Z,-1.59
2023-01-12T15:59:06.295Z,-1.54
2023-01-12T16:01:49.939Z,-1.49
2023-01-12T16:04:42.236Z,-1.45
2023-01-12T16:07:10.648Z,-1.39
2023-01-12T16:09:41.201Z,-1.34
2023-01-12T16:12:08.912Z,-1.32
2023-01-12T16:14:36.608Z,-1.36
2023-01-12T16:17:04.889Z,-1.38
2023-01-12T16:19:34.749Z,-1.37
2023-01-12T16:22:03.995Z,-1.36
2023-01-12T16:24:32.610Z,-1.35
2023-01-12T16:27:00.752Z,-1.35
2023-01-12T16:29:28.409Z,-1.38
2023-01-12T16:31:57.123Z,-1.40
2023-01-12T16:34:25.261Z,-1.45
2023-01-12T16:36:53.028Z,-1.55
2023-01-12T16:39:20.481Z,-1.65
2023-01-12T16:41:48.553Z,-1.72
2023-01-12T16:44:16.229Z,-1.77
2023-01-12T16:46:45.308Z,-1.76
2023-01-12T16:49:12.869Z,-1.72
2023-01-12T16:51:40.633Z,-1.68
2023-01-12T16:54:08.500Z,-1.67
2023-01-12T16:56:36.058Z,-1.68
2023-01-12T16:59:03.825Z,-1.71
2023-01-12T17:01:31.540Z,-1.73
2023-01-12T17:04:00.682Z,-1.75
2023-01-12T17:06:29.366Z,-1.76
2023-01-12T17:08:57.294Z,-1.72
2023-01-12T17:11:26.331Z,-1.69
2023-01-12T17:13:55.454Z,-1.66
2023-01-12T17:16:25.096Z,-1.62
2023-01-12T17:18:54.025Z,-1.61
2023-01-12T17:21:23.530Z,-1.58
2023-01-12T17:23:52.625Z,-1.52
2023-01-12T17:26:20.503Z,-1.48
2023-01-12T17:28:49.319Z,-1.45
2023-01-12T17:31:19.011Z,-1.43
2023-01-12T17:33:47.063Z,-1.42
2023-01-12T17:36:14.840Z,-1.42
2023-01-12T17:38:42.820Z,-1.43
2023-01-12T17:41:34.609Z,-1.45
2023-01-12T17:44:04.740Z,-1.46
2023-01-12T17:46:32.419Z,-1.46
2023-01-12T17:49:01.188Z,-1.43
2023-01-12T17:51:28.860Z,-1.39
2023-01-12T17:53:58.043Z,-1.39
2023-01-12T17:56:26.018Z,-1.42
2023-01-12T17:58:53.807Z,-1.46
2023-01-12T18:01:22.459Z,-1.49
2023-01-12T18:03:50.844Z,-1.52
2023-01-12T18:06:26.392Z,-1.54
2023-01-12T18:09:02.243Z,-1.55
2023-01-12T18:11:31.858Z,-1.55
2023-01-12T18:14:00.913Z,-1.53
2023-01-12T18:16:28.812Z,-1.51
2023-01-12T18:18:56.583Z,-1.54
2023-01-12T18:21:26.200Z,-1.58
2023-01-12T18:23:54.452Z,-1.60
2023-01-12T18:26:25.614Z,-1.61
2023-01-12T18:28:57.269Z,-1.59
2023-01-12T18:31:27.193Z,-1.58
2023-01-12T18:34:10.620Z,-1.59
2023-01-12T18:36:39.796Z,-1.60
2023-01-12T18:39:09.614Z,-1.56
2023-01-12T18:41:56.339Z,-1.49
2023-01-12T18:44:24.735Z,-1.48
2023-01-12T18:47:11.229Z,-1.50
2023-01-12T18:49:42.346Z,-1.47
2023-01-12T18:52:29.773Z,-1.45
2023-01-12T18:54:59.071Z,-1.44
2023-01-12T18:57:28.804Z,-1.44
2023-01-12T19:00:04.952Z,-1.45
2023-01-12T19:02:33.043Z,-1.41
2023-01-12T19:05:20.346Z,-1.35
2023-01-12T19:07:57.837Z,-1.30
2023-01-12T19:10:26.203Z,-1.31
2023-01-12T19:13:14.137Z,-1.29
2023-01-12T19:16:00.924Z,-1.27
2023-01-12T19:18:29.025Z,-1.25
2023-01-12T19:21:22.698Z,-1.23
2023-01-12T19:24:08.992Z,-1.19
2023-01-12T19:26:55.692Z,-1.16
2023-01-12T19:29:24.089Z,-1.12
2023-01-12T19:31:52.055Z,-1.15
2023-01-12T19:34:19.705Z,-1.25
2023-01-12T19:36:47.189Z,-1.30
2023-01-12T19:39:15.579Z,-1.32
2023-01-12T19:42:02.349Z,-1.37
2023-01-12T19:44:29.912Z,-1.43
2023-01-12T19:46:57.671Z,-1.45
2023-01-12T19:49:25.659Z,-1.46
2023-01-12T19:51:53.615Z,-1.45
2023-01-12T19:54:21.371Z,-1.45
2023-01-12T19:56:48.931Z,-1.46
2023-01-12T19:59:17.213Z,-1.46
2023-01-12T20:01:44.969Z,-1.43
2023-01-12T20:04:13.043Z,-1.42
2023-01-12T20:06:40.767Z,-1.41
2023-01-12T20:09:08.601Z,-1.40
2023-01-12T20:11:37.216Z,-1.38
2023-01-12T20:14:05.038Z,-1.34
2023-01-12T20:16:34.124Z,-1.34
2023-01-12T20:19:04.471Z,-1.40
2023-01-12T20:21:32.360Z,-1.41
2023-01-12T20:24:00.580Z,-1.41
2023-01-12T20:26:28.124Z,-1.43
2023-01-12T20:28:56.418Z,-1.45
2023-01-12T20:31:24.578Z,-1.41
2023-01-12T20:33:52.562Z,-1.36
2023-01-12T20:36:20.732Z,-1.33
2023-01-12T20:38:51.181Z,-1.30
2023-01-12T20:41:19.231Z,-1.25
2023-01-12T20:43:49.485Z,-1.19
2023-01-12T20:46:19.340Z,-1.15
2023-01-12T20:48:47.645Z,-1.14
2023-01-12T20:51:16.083Z,-1.13
2023-01-12T20:53:43.783Z,-1.08
2023-01-12T20:56:11.556Z,-1.05
2023-01-12T20:58:39.320Z,-1.02
2023-01-12T21:01:09.883Z,-0.98
2023-01-12T21:03:37.760Z,-0.98
2023-01-12T21:06:10.354Z,-0.98
2023-01-12T21:08:39.680Z,-1.06
2023-01-12T21:11:07.963Z,-1.10
2023-01-12T21:13:36.541Z,-1.13
2023-01-12T21:16:05.411Z,-1.19
2023-01-12T21:18:33.809Z,-1.23
2023-01-12T21:21:02.094Z,-1.26
2023-01-12T21:23:29.852Z,-1.26
2023-01-12T21:25:57.925Z,-1.23
2023-01-12T21:28:25.682Z,-1.18
2023-01-12T21:30:54.940Z,-1.13
2023-01-12T21:33:24.099Z,-1.12
2023-01-12T21:35:59.324Z,-1.15
2023-01-12T21:38:28.628Z,-1.14
2023-01-12T21:41:00.375Z,-1.11
2023-01-12T21:43:28.056Z,-1.07
2023-01-12T21:45:57.708Z,-1.07
2023-01-12T21:48:25.465Z,-1.09
2023-01-12T21:50:54.298Z,-1.10
2023-01-12T21:53:22.892Z,-1.07
2023-01-12T21:55:58.585Z,-1.05
2023-01-12T21:58:27.479Z,-1.03
2023-01-12T22:00:55.670Z,-0.99
2023-01-12T22:03:24.817Z,-0.96
2023-01-12T22:05:53.069Z,-0.93
2023-01-12T22:08:21.315Z,-0.92
2023-01-12T22:10:48.915Z,-0.92
2023-01-12T22:13:17.596Z,-0.89
2023-01-12T22:15:45.267Z,-0.84
2023-01-12T22:18:13.327Z,-0.81
2023-01-12T22:20:42.116Z,-0.80
2023-01-12T22:23:12.347Z,-0.76
2023-01-12T22:25:40.505Z,-0.72
2023-01-12T22:28:08.161Z,-0.68
2023-01-12T22:30:35.616Z,-0.64
2023-01-12T22:33:03.279Z,-0.58
2023-01-12T22:35:30.848Z,-0.52
2023-01-12T22:37:58.809Z,-0.51
2023-01-12T22:40:26.677Z,-0.47
2023-01-12T22:43:13.178Z,-0.45
2023-01-12T22:45:40.997Z,-0.43
2023-01-12T22:48:08.463Z,-0.43
2023-01-12T22:50:35.871Z,-0.39
2023-01-12T22:53:03.518Z,-0.36
2023-01-12T22:55:31.896Z,-0.38
2023-01-12T22:57:59.667Z,-0.41
2023-01-12T23:00:27.734Z,-0.47
2023-01-12T23:03:02.362Z,-0.47
2023-01-12T23:05:32.785Z,-0.46
2023-01-12T23:08:00.969Z,-0.45
2023-01-12T23:10:28.734Z,-0.43
2023-01-12T23:13:12.260Z,-0.36
2023-01-12T23:15:45.709Z,-0.33
2023-01-12T23:18:14.609Z,-0.35
2023-01-12T23:20:42.932Z,-0.34
